METAR Data
IDs: Format: Raw Decoded Include TAF

Data at: 2236 UTC 10 May 2021

KITR 102230Z AUTO 11006KT 2SM RA BR SCT006 SCT010 OVC029 06/04 A3011 RMK AO2 RAB22 P0003 T00610044
KITR 102223Z AUTO 12008KT 1 3/4SM -RA BR SCT006 BKN012 OVC029 06/04 A3011 RMK AO2 RAB22 P0001 T00610044
KITR 102211Z AUTO 14009KT 2 1/2SM BR BKN008 BKN012 OVC035 07/04 A3013 RMK AO2 T00670044
KITR 102153Z AUTO 15011KT 3SM BR FEW006 BKN010 OVC035 07/04 A3011 RMK AO2 SLP194 T00670044
KITR 102151Z AUTO 15013KT 3SM BR BKN008 BKN017 OVC028 07/04 A3011 RMK AO2
KITR 102147Z AUTO 14011KT 2 1/2SM HZ BKN010 BKN016 OVC028 07/04 A3011 RMK AO2
KITR 102053Z AUTO 14013KT 6SM HZ SCT020 OVC027 07/03 A3011 RMK AO2 SLP191 T00720033 58002
KITR 102002Z AUTO 12015KT 10SM OVC027 08/02 A3011 RMK AO2 T00780022
KITR 101953Z AUTO 13015KT 10SM SCT024 OVC031 08/02 A3012 RMK AO2 SLP190 T00780022
KITR 101950Z AUTO 13014KT 10SM FEW022 BKN028 OVC047 08/02 A3012 RMK AO2
KITR 101935Z AUTO 14013KT 10SM FEW024 SCT030 OVC047 08/02 A3012 RMK AO2 T00780022
KITR 101853Z AUTO 13016KT 10SM BKN021 BKN027 OVC049 08/03 A3012 RMK AO2 SLP191 T00780028
KITR 101806Z AUTO 14015G23KT 10SM BKN021 OVC050 08/02 A3013 RMK AO2 T00780022
KITR 101753Z AUTO 14016G25KT 10SM SCT021 SCT025 OVC050 08/03 A3013 RMK AO2 SLP199 60002 T00780028 10083 20044 58009
KITR 101702Z AUTO 16015KT 10SM SCT019 BKN025 OVC050 07/03 A3015 RMK AO2 T00720028
KITR 101653Z AUTO 14013KT 10SM FEW020 SCT025 OVC050 07/02 A3015 RMK AO2 SLP206 T00720022
KITR 101553Z AUTO 17010KT 10SM OVC050 06/02 A3016 RMK AO2 RAE13 SLP205 P0001 T00610022
KITR 101453Z AUTO 15013G22KT 10SM -RA FEW026 BKN038 OVC045 06/02 A3016 RMK AO2 RAB36 SLP206 P0000 60001 T00560017 51003
KITR 101353Z AUTO 16011KT 10SM OVC040 05/02 A3016 RMK AO2 RAE42 SLP206 P0001 T00500017
KITR 101253Z AUTO 18008KT 10SM -RA OVC042 04/02 A3016 RMK AO2 RAB48 SLP203 P0000 T00440022
KITR 101153Z AUTO 18014KT 10SM OVC048 04/02 A3015 RMK AO2 SLP201 60005 70005 T00440017 10067 20044 53003
KITR 101053Z AUTO 19013KT 10SM OVC044 05/03 A3015 RMK AO2 SLP198 T00500028
KITR 100953Z AUTO 19016KT 10SM OVC046 05/03 A3013 RMK AO2 RAE43 SLP191 P0002 T00500028
KITR 100853Z AUTO 15012KT 7SM -RA FEW006 BKN030 OVC036 06/04 A3014 RMK AO2 SLP195 P0002 60003 T00560039 53002
KITR 100839Z AUTO 15011KT 7SM -RA FEW007 BKN030 OVC036 06/04 A3015 RMK AO2 P0001 T00610039
KITR 100753Z AUTO 13011KT 10SM -RA OVC055 06/03 A3013 RMK AO2 RAB35 SLP192 P0001 T00610028
KITR 100653Z AUTO 15005KT 10SM OVC055 06/02 A3013 RMK AO2 SLP191 T00610022 401170028
KITR 100553Z AUTO 00000KT 10SM BKN055 04/01 A3014 RMK AO2 SLP194 T00440011 10111 20044 51002
KITR 100453Z AUTO 14005KT 10SM FEW090 05/01 A3013 RMK AO2 SLP193 T00500011
KITR 100353Z AUTO 00000KT 10SM OVC065 08/02 A3014 RMK AO2 SLP196 T00830022
KITR 100253Z AUTO 00000KT 10SM OVC065 08/03 A3013 RMK AO2 SLP193 T00830028 53011
KITR 100153Z AUTO 11006KT 10SM OVC090 09/01 A3011 RMK AO2 SLP186 T00940006
KITR 100053Z AUTO 10008KT 10SM OVC075 11/01 A3009 RMK AO2 SLP181 T01060006
KITR 092353Z AUTO 11005KT 10SM OVC070 11/M01 A3009 RMK AO2 SLP180 T01111006 10117 20100 53004
KITR 092253Z AUTO 07007KT 10SM OVC070 11/00 A3006 RMK AO2 SLP171 T01110000
KITR 092153Z AUTO 07005KT 10SM BKN075 OVC085 11/00 A3007 RMK AO2 SLP170 T01110000
KITR 092053Z AUTO 03005KT 10SM OVC070 11/00 A3008 RMK AO2 SLP172 T01110000 58008
KITR 091953Z AUTO 02005KT 10SM OVC080 11/00 A3009 RMK AO2 SLP176 T01060000
KITR 091853Z AUTO 03010KT 10SM OVC070 10/01 A3010 RMK AO2 SLP180 T01000011
KITR 091753Z AUTO 03013G19KT 10SM SCT100 11/02 A3010 RMK AO2 SLP176 T01060022 10106 20028 58003
KITR 091653Z AUTO 01010G18KT 10SM SCT022 BKN070 09/02 A3012 RMK AO2 SLP181 T00940017
KITR 091553Z AUTO 01013G20KT 10SM SCT017 BKN075 OVC090 07/02 A3011 RMK AO2 SLP182 T00720017
KITR 091550Z AUTO 01012KT 10SM BKN017 BKN075 OVC090 07/02 A3011 RMK AO2
KITR 091543Z AUTO 36011KT 10SM SCT017 BKN090 07/02 A3011 RMK AO2 T00670017
KITR 091533Z AUTO 01012KT 10SM BKN016 BKN090 07/01 A3011 RMK AO2 T00670011
KITR 091453Z AUTO 36012G19KT 10SM FEW013 BKN080 OVC110 06/01 A3011 RMK AO2 SLP182 T00560011 51016
KITR 091353Z AUTO 35012G18KT 10SM FEW011 SCT014 BKN100 05/02 A3010 RMK AO2 SLP179 T00500017
KITR 091341Z AUTO 35012G19KT 10SM FEW009 OVC095 04/02 A3010 RMK AO2 T00440017
KITR 091253Z AUTO 36012KT 10SM SCT090 04/01 A3007 RMK AO2 SLP170 T00390011
KITR 091153Z AUTO 35009KT 10SM CLR 03/00 A3005 RMK AO2 SLP156 70006 T00280000 10089 20028 53014
KITR 091053Z AUTO 01012KT 10SM CLR 03/01 A3003 RMK AO2 SLP143 T00330006